Time;durP1;ratioP1;P1;durP2;ratioP2;P2;SDS_P1;SDS_P2;PMS_P1;PMS_P2;Temp;Humidity;BMP_temperature;BMP_pressure;BME280_temperature;BME280_humidity;BME280_pressure;Samples;Min_cycle;Max_cycle;Signal;HPM_P1;HPM_P2
2022/12/02 00:01:07;;;;;;;;;;;19.80;64.60;;;;;;1569215;74;1499;-69
2022/12/02 00:03:10;;;;;;;;;;;19.80;64.40;;;;;;1579853;74;731;-68
2022/12/02 00:05:20;;;;;;;;;;;19.80;64.50;;;;;;1581423;74;1936;-70
2022/12/02 00:07:22;;;;;;;;;;;19.80;64.50;;;;;;1576003;74;831;-69
2022/12/02 00:09:26;;;;;;;;;;;19.80;64.30;;;;;;1578458;74;800;-69
2022/12/02 00:11:29;;;;;;;;;;;19.80;64.20;;;;;;1577340;74;709;-70
2022/12/02 00:13:38;;;;;;;;;;;19.80;64.40;;;;;;1576647;74;726;-68
2022/12/02 00:15:42;;;;;;;;;;;19.80;64.20;;;;;;1578641;74;1758;-71
2022/12/02 00:17:43;;;;;;;;;;;19.80;64.10;;;;;;1585384;74;1735;-69
2022/12/02 00:19:45;;;;;;;;;;;19.80;64.00;;;;;;1574853;74;671;-69
2022/12/02 00:21:48;;;;;;;;;;;19.90;64.00;;;;;;1574519;74;791;-69
2022/12/02 00:23:50;;;;;;;;;;;19.90;63.80;;;;;;1576083;74;730;-68
2022/12/02 00:25:52;;;;;;;;;;;19.90;63.70;;;;;;1583003;74;1952;-71
2022/12/02 00:27:54;;;;;;;;;;;19.90;63.70;;;;;;1580797;74;718;-70
2022/12/02 00:29:56;;;;;;;;;;;20.00;63.50;;;;;;1579788;74;1534;-69
2022/12/02 00:31:58;;;;;;;;;;;20.00;63.40;;;;;;1582286;74;713;-69
2022/12/02 00:34:00;;;;;;;;;;;20.00;63.30;;;;;;1577969;74;672;-69
2022/12/02 00:36:02;;;;;;;;;;;20.00;63.20;;;;;;1576623;74;1115;-69
2022/12/02 00:38:04;;;;;;;;;;;20.00;63.20;;;;;;1577791;74;771;-68
2022/12/02 00:40:06;;;;;;;;;;;20.00;63.40;;;;;;1577345;74;747;-68
2022/12/02 00:42:08;;;;;;;;;;;19.90;63.40;;;;;;1578676;74;590;-70
2022/12/02 00:46:37;;;;;;;;;;;19.90;63.40;;;;;;1581561;74;1929;-70
2022/12/02 00:48:36;;;;;;;;;;;19.90;63.40;;;;;;1578196;74;1001;-69
2022/12/02 00:50:38;;;;;;;;;;;20.00;63.50;;;;;;1576528;74;704;-70
2022/12/02 00:52:40;;;;;;;;;;;20.00;63.60;;;;;;1576854;74;760;-69
2022/12/02 00:54:42;;;;;;;;;;;20.00;63.40;;;;;;1576861;74;724;-68
2022/12/02 00:56:44;;;;;;;;;;;20.00;63.40;;;;;;1577015;74;1489;-69
2022/12/02 00:58:46;;;;;;;;;;;19.90;63.40;;;;;;1579789;74;832;-69
2022/12/02 01:00:48;;;;;;;;;;;20.00;63.30;;;;;;1590512;74;706;-70
2022/12/02 01:02:49;;;;;;;;;;;20.00;63.30;;;;;;1576961;74;658;-70
2022/12/02 01:04:51;;;;;;;;;;;19.90;63.30;;;;;;1576907;74;772;-70
2022/12/02 01:06:53;;;;;;;;;;;20.00;64.40;;;;;;1577505;74;1923;-69
2022/12/02 01:08:55;;;;;;;;;;;19.90;64.80;;;;;;1575958;74;738;-68
2022/12/02 01:10:57;;;;;;;;;;;19.80;64.90;;;;;;1583593;74;1437;-69
2022/12/02 01:12:59;;;;;;;;;;;19.80;64.80;;;;;;1580233;74;717;-69
2022/12/02 01:15:01;;;;;;;;;;;19.70;64.90;;;;;;1578569;74;654;-69
2022/12/02 01:17:03;;;;;;;;;;;19.80;64.80;;;;;;1576854;74;1104;-68
2022/12/02 01:19:05;;;;;;;;;;;19.70;65.30;;;;;;1576709;74;552;-69
2022/12/02 01:21:07;;;;;;;;;;;19.70;65.40;;;;;;1575661;74;714;-70
2022/12/02 01:23:08;;;;;;;;;;;19.70;65.60;;;;;;1567618;74;715;-68
2022/12/02 01:25:10;;;;;;;;;;;19.70;65.70;;;;;;1576922;74;1331;-68
2022/12/02 01:27:12;;;;;;;;;;;19.60;65.50;;;;;;1579698;74;1934;-68
2022/12/02 01:29:14;;;;;;;;;;;19.70;65.90;;;;;;1576747;74;795;-69
2022/12/02 01:31:16;;;;;;;;;;;19.70;65.20;;;;;;1576080;74;673;-69
2022/12/02 01:33:18;;;;;;;;;;;19.70;64.90;;;;;;1577297;74;696;-69
2022/12/02 01:35:20;;;;;;;;;;;19.80;64.60;;;;;;1576459;73;1153;-69
2022/12/02 01:37:21;;;;;;;;;;;19.90;64.50;;;;;;1577741;74;732;-68
2022/12/02 01:39:23;;;;;;;;;;;19.80;64.20;;;;;;1579779;74;1470;-68
2022/12/02 01:41:25;;;;;;;;;;;19.90;64.10;;;;;;1580364;74;698;-68
2022/12/02 01:43:27;;;;;;;;;;;19.80;64.00;;;;;;1576088;74;698;-69
2022/12/02 01:45:30;;;;;;;;;;;19.90;64.00;;;;;;1576706;74;1178;-69
2022/12/02 01:47:32;;;;;;;;;;;19.90;64.10;;;;;;1581305;74;1918;-68
2022/12/02 01:49:34;;;;;;;;;;;19.90;64.10;;;;;;1582229;74;688;-69
2022/12/02 01:51:35;;;;;;;;;;;19.80;64.00;;;;;;1579012;74;577;-69
2022/12/02 01:53:38;;;;;;;;;;;19.80;64.00;;;;;;1577581;74;1428;-68
2022/12/02 01:55:40;;;;;;;;;;;19.80;64.00;;;;;;1572676;73;229630;-74
2022/12/02 01:57:42;;;;;;;;;;;19.80;64.00;;;;;;1540293;76;713;-77
2022/12/02 01:59:44;;;;;;;;;;;19.80;63.90;;;;;;1549481;76;734;-77
2022/12/02 02:01:45;;;;;;;;;;;19.90;63.80;;;;;;1537220;76;618;-77
2022/12/02 02:03:47;;;;;;;;;;;19.90;63.80;;;;;;1540573;76;686;-77
2022/12/02 02:05:49;;;;;;;;;;;19.90;63.70;;;;;;1536021;76;1952;-77
2022/12/02 02:07:53;;;;;;;;;;;20.00;63.50;;;;;;1535800;76;1571;-78
2022/12/02 02:09:55;;;;;;;;;;;20.00;63.50;;;;;;1529686;76;1099;-77
2022/12/02 02:11:56;;;;;;;;;;;20.00;63.50;;;;;;1538945;76;727;-77
2022/12/02 02:13:58;;;;;;;;;;;19.90;63.40;;;;;;1530792;76;722;-78
2022/12/02 02:16:00;;;;;;;;;;;19.90;63.40;;;;;;1534212;76;1138;-78
2022/12/02 02:18:02;;;;;;;;;;;20.00;63.30;;;;;;1548187;76;738;-78
2022/12/02 02:20:04;;;;;;;;;;;20.00;63.20;;;;;;1541148;76;746;-76
2022/12/02 02:22:08;;;;;;;;;;;20.00;63.20;;;;;;1536853;76;1497;-75
2022/12/02 02:24:10;;;;;;;;;;;19.90;63.60;;;;;;1534965;76;1779;-76
2022/12/02 02:26:12;;;;;;;;;;;19.90;63.70;;;;;;1529742;76;1950;-76
2022/12/02 02:28:13;;;;;;;;;;;19.90;63.70;;;;;;1544587;76;723;-76
2022/12/02 02:30:15;;;;;;;;;;;19.90;63.60;;;;;;1538257;76;604;-73
2022/12/02 02:32:17;;;;;;;;;;;20.00;63.50;;;;;;1538206;76;790;-73
2022/12/02 02:34:19;;;;;;;;;;;19.90;63.40;;;;;;1536303;76;725;-74
2022/12/02 02:36:21;;;;;;;;;;;20.00;63.20;;;;;;1531789;76;1558;-74
2022/12/02 02:38:24;;;;;;;;;;;20.00;63.10;;;;;;1533369;76;736;-74
2022/12/02 02:40:26;;;;;;;;;;;20.00;63.10;;;;;;1531549;76;830;-74
2022/12/02 02:42:28;;;;;;;;;;;20.00;63.10;;;;;;1534971;76;619;-76
2022/12/02 02:44:29;;;;;;;;;;;20.00;63.20;;;;;;1561057;76;820;-77
2022/12/02 02:46:31;;;;;;;;;;;20.00;63.20;;;;;;1545402;75;1952;-76
2022/12/02 02:48:33;;;;;;;;;;;19.90;63.20;;;;;;1553724;76;762;-77
2022/12/02 02:50:35;;;;;;;;;;;19.90;63.70;;;;;;1519454;76;1584;-77
2022/12/02 02:52:37;;;;;;;;;;;19.90;63.60;;;;;;1534408;76;770;-75
2022/12/02 02:54:39;;;;;;;;;;;19.90;64.20;;;;;;1542034;76;722;-74
2022/12/02 02:56:41;;;;;;;;;;;19.90;63.80;;;;;;1547888;76;1129;-73
2022/12/02 02:58:43;;;;;;;;;;;19.80;63.60;;;;;;1541038;76;493;-77
2022/12/02 03:00:58;;;;;;;;;;;19.90;63.60;;;;;;1535844;76;751;-77
2022/12/02 03:02:59;;;;;;;;;;;19.90;63.40;;;;;;1545873;76;1508;-76
2022/12/02 03:05:01;;;;;;;;;;;20.00;63.30;;;;;;1523762;76;730;-76
2022/12/02 03:07:03;;;;;;;;;;;20.00;63.30;;;;;;1538477;76;1942;-76
2022/12/02 03:09:05;;;;;;;;;;;20.00;63.20;;;;;;1533208;76;754;-76
2022/12/02 03:11:07;;;;;;;;;;;20.00;63.10;;;;;;1550260;76;830;-75
2022/12/02 03:13:09;;;;;;;;;;;20.00;63.10;;;;;;1538565;76;790;-76
2022/12/02 03:15:11;;;;;;;;;;;20.00;63.10;;;;;;1541316;76;739;-76
2022/12/02 03:17:13;;;;;;;;;;;20.00;63.00;;;;;;1549060;76;1566;-77
2022/12/02 03:19:15;;;;;;;;;;;20.00;63.00;;;;;;1524338;76;726;-76
2022/12/02 03:21:17;;;;;;;;;;;20.00;63.00;;;;;;1536135;76;744;-76
2022/12/02 03:23:19;;;;;;;;;;;20.00;63.00;;;;;;1541878;76;786;-76
2022/12/02 03:25:20;;;;;;;;;;;20.00;63.00;;;;;;1550061;76;807;-79
2022/12/02 03:27:22;;;;;;;;;;;19.90;63.10;;;;;;1539173;76;1932;-79
2022/12/02 03:29:24;;;;;;;;;;;20.00;63.20;;;;;;1531250;76;788;-78
2022/12/02 03:31:26;;;;;;;;;;;20.00;63.20;;;;;;1526607;76;1556;-79
2022/12/02 03:33:28;;;;;;;;;;;20.00;63.20;;;;;;1517678;76;739;-78
2022/12/02 03:35:32;;;;;;;;;;;19.90;63.20;;;;;;1524757;76;896;-78
2022/12/02 03:37:33;;;;;;;;;;;19.90;63.20;;;;;;1525958;76;1168;-78
2022/12/02 03:39:35;;;;;;;;;;;19.90;63.20;;;;;;1536530;76;767;-78
2022/12/02 03:41:37;;;;;;;;;;;19.90;63.30;;;;;;1535400;76;788;-79
2022/12/02 03:43:39;;;;;;;;;;;19.90;63.40;;;;;;1537956;76;727;-78
2022/12/02 03:45:41;;;;;;;;;;;19.90;63.40;;;;;;1538940;76;1513;-79
2022/12/02 03:47:43;;;;;;;;;;;19.90;63.40;;;;;;1519556;76;1913;-79
2022/12/02 03:49:45;;;;;;;;;;;19.90;63.50;;;;;;1541995;76;692;-78
2022/12/02 03:51:47;;;;;;;;;;;19.90;63.50;;;;;;1532994;76;802;-78
2022/12/02 03:53:49;;;;;;;;;;;19.90;63.50;;;;;;1536617;76;736;-78
2022/12/02 03:55:51;;;;;;;;;;;19.80;63.50;;;;;;1549173;74;1146;-78
2022/12/02 03:57:53;;;;;;;;;;;19.90;63.60;;;;;;1540330;76;988;-76
2022/12/02 03:59:55;;;;;;;;;;;19.90;63.60;;;;;;1543841;76;1597;-77
2022/12/02 04:01:57;;;;;;;;;;;19.90;63.60;;;;;;1510970;76;717;-78
2022/12/02 04:03:59;;;;;;;;;;;19.80;63.60;;;;;;1532653;76;730;-79
2022/12/02 04:06:01;;;;;;;;;;;19.90;63.60;;;;;;1527758;76;1138;-78
2022/12/02 04:08:03;;;;;;;;;;;19.90;63.60;;;;;;1536225;76;1949;-77
2022/12/02 04:10:05;;;;;;;;;;;19.80;64.10;;;;;;1540411;76;711;-76
2022/12/02 04:12:07;;;;;;;;;;;19.80;63.90;;;;;;1537571;76;779;-76
2022/12/02 04:14:09;;;;;;;;;;;19.80;64.00;;;;;;1543978;76;1558;-77
2022/12/02 04:16:10;;;;;;;;;;;19.80;63.90;;;;;;1511385;76;1122;-76
2022/12/02 04:18:12;;;;;;;;;;;19.80;63.80;;;;;;1542273;76;739;-76
2022/12/02 04:20:14;;;;;;;;;;;19.80;63.80;;;;;;1527770;76;718;-76
2022/12/02 04:22:16;;;;;;;;;;;19.80;63.80;;;;;;1538539;76;752;-76
2022/12/02 04:24:18;;;;;;;;;;;19.70;63.90;;;;;;1540814;76;716;-75
2022/12/02 04:26:20;;;;;;;;;;;19.80;63.90;;;;;;1535402;76;1146;-76
2022/12/02 04:28:22;;;;;;;;;;;19.70;63.90;;;;;;1539652;76;1928;-76
2022/12/02 04:30:24;;;;;;;;;;;19.80;64.00;;;;;;1526313;76;741;-77
2022/12/02 04:32:25;;;;;;;;;;;19.70;64.20;;;;;;1524766;76;610;-77
2022/12/02 04:34:27;;;;;;;;;;;19.70;64.60;;;;;;1538387;76;765;-73
2022/12/02 04:36:29;;;;;;;;;;;19.70;65.10;;;;;;1538318;76;1200;-74
2022/12/02 04:38:31;;;;;;;;;;;19.70;65.30;;;;;;1553486;76;817;-76
2022/12/02 04:40:33;;;;;;;;;;;19.60;65.20;;;;;;1542606;76;786;-75
2022/12/02 04:42:35;;;;;;;;;;;19.60;65.40;;;;;;1531157;76;1598;-78
2022/12/02 04:44:37;;;;;;;;;;;19.60;65.70;;;;;;1530143;76;750;-78
2022/12/02 04:46:39;;;;;;;;;;;19.60;65.60;;;;;;1543944;75;1127;-75
2022/12/02 04:48:40;;;;;;;;;;;19.60;65.30;;;;;;1535012;76;1945;-78
2022/12/02 04:50:42;;;;;;;;;;;19.60;65.00;;;;;;1526870;76;726;-78
2022/12/02 04:52:44;;;;;;;;;;;19.70;65.20;;;;;;1540639;76;717;-78
2022/12/02 04:54:46;;;;;;;;;;;19.70;65.10;;;;;;1547903;76;734;-74
2022/12/02 04:56:48;;;;;;;;;;;19.60;65.10;;;;;;1533684;76;1621;-74
2022/12/02 04:58:50;;;;;;;;;;;19.70;65.50;;;;;;1519231;76;791;-75
2022/12/02 05:00:52;;;;;;;;;;;19.60;65.50;;;;;;1538060;76;750;-73
2022/12/02 05:02:54;;;;;;;;;;;19.60;65.30;;;;;;1545949;76;746;-72
2022/12/02 05:04:56;;;;;;;;;;;19.60;65.20;;;;;;1548083;76;755;-71
2022/12/02 05:06:58;;;;;;;;;;;19.60;65.40;;;;;;1548110;76;1929;-76
2022/12/02 05:08:59;;;;;;;;;;;19.60;65.30;;;;;;1525999;76;659;-76
2022/12/02 05:11:01;;;;;;;;;;;19.60;65.00;;;;;;1535836;76;1534;-78
2022/12/02 05:13:03;;;;;;;;;;;19.60;65.20;;;;;;1526676;76;715;-77
2022/12/02 05:15:05;;;;;;;;;;;19.60;65.60;;;;;;1555738;76;892;-76
2022/12/02 05:17:07;;;;;;;;;;;19.60;65.50;;;;;;1549527;76;1097;-77
2022/12/02 05:19:09;;;;;;;;;;;19.50;65.70;;;;;;1538784;76;778;-78
2022/12/02 05:21:11;;;;;;;;;;;19.60;65.90;;;;;;1536322;76;738;-78
2022/12/02 05:23:13;;;;;;;;;;;19.60;65.20;;;;;;1533042;76;774;-77
2022/12/02 05:25:15;;;;;;;;;;;19.60;65.50;;;;;;1536994;76;1643;-77
2022/12/02 05:27:17;;;;;;;;;;;19.60;65.30;;;;;;1530391;76;1955;-78
2022/12/02 05:29:19;;;;;;;;;;;19.60;65.20;;;;;;1516302;76;686;-76
2022/12/02 05:31:21;;;;;;;;;;;19.60;65.30;;;;;;1528122;76;716;-77
2022/12/02 05:33:23;;;;;;;;;;;19.60;65.50;;;;;;1542605;76;768;-73
2022/12/02 05:35:24;;;;;;;;;;;19.60;65.70;;;;;;1535972;76;732;-74
2022/12/02 05:37:26;;;;;;;;;;;19.60;65.60;;;;;;1546388;74;1127;-77
2022/12/02 05:39:28;;;;;;;;;;;19.60;65.50;;;;;;1522628;76;1617;-72
2022/12/02 05:41:30;;;;;;;;;;;19.60;65.30;;;;;;1527146;76;707;-70
2022/12/02 05:43:34;;;;;;;;;;;19.60;66.10;;;;;;1536071;76;766;-77
2022/12/02 05:45:35;;;;;;;;;;;19.60;65.70;;;;;;1532417;76;1791;-76
2022/12/02 05:47:37;;;;;;;;;;;19.60;65.40;;;;;;1537747;76;1936;-76
2022/12/02 05:49:39;;;;;;;;;;;19.60;65.20;;;;;;1538483;76;711;-76
2022/12/02 05:51:41;;;;;;;;;;;19.60;65.00;;;;;;1530539;76;1531;-75
2022/12/02 05:53:43;;;;;;;;;;;19.60;65.10;;;;;;1544420;76;744;-75
2022/12/02 05:55:45;;;;;;;;;;;19.60;64.90;;;;;;1528846;76;1086;-75
2022/12/02 05:57:47;;;;;;;;;;;19.60;65.00;;;;;;1530114;76;767;-77
2022/12/02 05:59:49;;;;;;;;;;;19.60;65.00;;;;;;1525927;76;819;-77
2022/12/02 06:01:52;;;;;;;;;;;19.60;65.00;;;;;;1547734;76;851;-77
2022/12/02 06:03:54;;;;;;;;;;;19.60;64.80;;;;;;1546487;76;733;-76
2022/12/02 06:05:56;;;;;;;;;;;19.70;64.80;;;;;;1549641;74;1644;-77
2022/12/02 06:07:58;;;;;;;;;;;19.60;64.70;;;;;;1534289;76;1926;-77
2022/12/02 06:10:00;;;;;;;;;;;19.60;64.60;;;;;;1533018;76;752;-77
2022/12/02 06:12:02;;;;;;;;;;;19.70;64.60;;;;;;1530557;76;730;-77
2022/12/02 06:14:12;;;;;;;;;;;19.70;64.50;;;;;;1553141;76;743;-77
2022/12/02 06:16:15;;;;;;;;;;;19.80;64.30;;;;;;1537628;76;2373;-77
2022/12/02 06:18:18;;;;;;;;;;;19.80;64.10;;;;;;1542274;76;1942;-77
2022/12/02 06:20:30;;;;;;;;;;;19.80;64.00;;;;;;1529447;76;1568;-77
2022/12/02 06:22:32;;;;;;;;;;;19.80;64.00;;;;;;1527540;76;766;-76
2022/12/02 06:24:34;;;;;;;;;;;19.80;64.20;;;;;;1530507;76;703;-73
2022/12/02 06:26:36;;;;;;;;;;;19.80;65.00;;;;;;1531613;76;1141;-74
2022/12/02 06:28:38;;;;;;;;;;;19.80;65.20;;;;;;1547407;76;1940;-71
2022/12/02 06:30:40;;;;;;;;;;;19.70;65.10;;;;;;1543589;76;757;-74
2022/12/02 06:32:43;;;;;;;;;;;19.70;65.00;;;;;;1540266;76;803;-72
2022/12/02 06:34:44;;;;;;;;;;;19.70;65.00;;;;;;1545631;76;1344;-72
2022/12/02 06:36:46;;;;;;;;;;;19.80;65.00;;;;;;1536512;75;1131;-71
2022/12/02 06:38:50;;;;;;;;;;;19.80;65.10;;;;;;1539178;76;683;-73
2022/12/02 06:40:51;;;;;;;;;;;19.70;65.10;;;;;;1535585;76;676;-72
2022/12/02 06:42:53;;;;;;;;;;;19.80;65.00;;;;;;1520701;76;655;-70
2022/12/02 06:45:06;;;;;;;;;;;19.70;64.90;;;;;;1538173;76;873;-71
2022/12/02 06:47:26;;;;;;;;;;;19.70;64.80;;;;;;1537636;76;1188;-73
2022/12/02 06:49:30;;;;;;;;;;;19.70;64.80;;;;;;1527019;76;1925;-71
2022/12/02 06:51:32;;;;;;;;;;;19.70;64.60;;;;;;1536569;76;715;-71
2022/12/02 06:53:37;;;;;;;;;;;19.70;64.50;;;;;;1550117;76;779;-73
2022/12/02 06:55:39;;;;;;;;;;;19.70;64.40;;;;;;1519552;76;1157;-73
2022/12/02 06:57:41;;;;;;;;;;;19.80;64.30;;;;;;1523773;76;779;-73
2022/12/02 06:59:44;;;;;;;;;;;19.70;64.30;;;;;;1519238;76;792;-71
2022/12/02 07:01:46;;;;;;;;;;;19.70;64.10;;;;;;1522834;76;785;-73
2022/12/02 07:03:49;;;;;;;;;;;19.70;64.20;;;;;;1547156;76;1555;-71
2022/12/02 07:05:52;;;;;;;;;;;19.70;64.20;;;;;;1520702;76;1151;-73
2022/12/02 07:07:54;;;;;;;;;;;19.70;64.10;;;;;;1538724;76;1938;-71
2022/12/02 07:09:58;;;;;;;;;;;19.70;64.00;;;;;;1528838;76;793;-72
2022/12/02 07:11:59;;;;;;;;;;;19.70;64.00;;;;;;1534382;76;695;-73
2022/12/02 07:14:01;;;;;;;;;;;19.70;64.00;;;;;;1556177;76;675;-73
2022/12/02 07:16:04;;;;;;;;;;;19.70;63.90;;;;;;1540234;76;1567;-74
2022/12/02 07:18:13;;;;;;;;;;;19.70;63.90;;;;;;1543904;76;803;-72
2022/12/02 07:20:17;;;;;;;;;;;19.70;63.80;;;;;;1533549;76;825;-72
2022/12/02 07:22:20;;;;;;;;;;;19.70;63.80;;;;;;1538214;75;733;-72
2022/12/02 07:24:22;;;;;;;;;;;19.70;63.80;;;;;;1531084;76;788;-72
2022/12/02 07:26:24;;;;;;;;;;;19.80;63.90;;;;;;1515741;76;1152;-71
2022/12/02 07:28:33;;;;;;;;;;;19.70;63.80;;;;;;1539379;76;1948;-70
2022/12/02 07:30:36;;;;;;;;;;;19.70;63.80;;;;;;1530962;76;1472;-71
2022/12/02 07:32:38;;;;;;;;;;;19.70;63.80;;;;;;1527683;76;728;-71
2022/12/02 07:34:40;;;;;;;;;;;19.70;63.80;;;;;;1542577;76;722;-72
2022/12/02 07:36:42;;;;;;;;;;;19.70;63.80;;;;;;1530842;76;1197;-72
2022/12/02 07:38:44;;;;;;;;;;;19.70;63.80;;;;;;1547516;76;703;-72
2022/12/02 07:40:46;;;;;;;;;;;19.70;63.80;;;;;;1528617;76;790;-71
2022/12/02 07:42:48;;;;;;;;;;;19.70;63.80;;;;;;1520254;76;718;-70
2022/12/02 07:44:50;;;;;;;;;;;19.70;63.80;;;;;;1541825;76;1586;-71
2022/12/02 07:46:52;;;;;;;;;;;19.70;63.80;;;;;;1530921;76;1185;-72
2022/12/02 07:48:54;;;;;;;;;;;19.70;63.80;;;;;;1528998;76;1948;-72
2022/12/02 07:50:56;;;;;;;;;;;19.70;63.80;;;;;;1520161;76;763;-69
2022/12/02 07:52:58;;;;;;;;;;;19.70;63.80;;;;;;1531100;74;943;-68
2022/12/02 07:55:00;;;;;;;;;;;19.70;63.80;;;;;;1522144;76;744;-74
2022/12/02 07:57:02;;;;;;;;;;;19.70;63.80;;;;;;1525714;73;3123;-71
2022/12/02 07:59:04;;;;;;;;;;;19.70;63.80;;;;;;1530079;76;1419;-72
2022/12/02 08:01:06;;;;;;;;;;;19.70;63.80;;;;;;1518768;76;736;-70
2022/12/02 08:03:08;;;;;;;;;;;19.70;63.80;;;;;;1529861;76;682;-70
2022/12/02 08:05:11;;;;;;;;;;;19.70;63.80;;;;;;1492426;78;670;-71
2022/12/02 08:07:13;;;;;;;;;;;19.70;63.80;;;;;;1491566;78;1198;-70
2022/12/02 08:09:15;;;;;;;;;;;19.70;63.80;;;;;;1497313;78;1931;-70
2022/12/02 08:11:17;;;;;;;;;;;19.70;63.80;;;;;;1493187;78;752;-72
2022/12/02 08:13:19;;;;;;;;;;;19.70;63.80;;;;;;1496737;78;1518;-71
2022/12/02 08:15:21;;;;;;;;;;;19.60;63.70;;;;;;1500128;78;741;-71
2022/12/02 08:17:23;;;;;;;;;;;19.60;63.70;;;;;;1499978;78;1155;-70
2022/12/02 08:19:25;;;;;;;;;;;19.70;63.80;;;;;;1501194;78;669;-71
2022/12/02 08:21:27;;;;;;;;;;;19.70;63.90;;;;;;1493010;78;669;-72
2022/12/02 08:23:29;;;;;;;;;;;19.70;63.90;;;;;;1488004;78;718;-71
2022/12/02 08:25:31;;;;;;;;;;;19.60;63.80;;;;;;1492975;78;622;-71
2022/12/02 08:27:33;;;;;;;;;;;19.70;63.90;;;;;;1494383;78;1546;-73
2022/12/02 08:29:35;;;;;;;;;;;19.70;63.90;;;;;;1489817;78;1925;-71
2022/12/02 08:31:37;;;;;;;;;;;19.70;63.90;;;;;;1499568;78;641;-72
2022/12/02 08:33:39;;;;;;;;;;;19.70;63.80;;;;;;1501741;78;600;-72
2022/12/02 08:35:41;;;;;;;;;;;19.70;63.90;;;;;;1501141;78;699;-72
2022/12/02 08:37:42;;;;;;;;;;;19.70;63.80;;;;;;1496013;78;1119;-71
2022/12/02 08:39:44;;;;;;;;;;;19.70;63.90;;;;;;1500080;78;593;-73
2022/12/02 08:41:46;;;;;;;;;;;19.70;63.80;;;;;;1491662;78;1479;-72
2022/12/02 08:43:48;;;;;;;;;;;19.70;63.90;;;;;;1489119;78;838;-72
2022/12/02 08:45:50;;;;;;;;;;;19.70;63.90;;;;;;1491315;78;758;-73
2022/12/02 08:47:52;;;;;;;;;;;19.70;63.90;;;;;;1505410;78;1160;-72
2022/12/02 08:49:54;;;;;;;;;;;19.70;63.90;;;;;;1493307;78;1943;-69
2022/12/02 08:51:56;;;;;;;;;;;19.60;63.80;;;;;;1497952;78;778;-70
2022/12/02 08:53:58;;;;;;;;;;;19.60;63.80;;;;;;1497330;78;722;-72
2022/12/02 08:56:00;;;;;;;;;;;19.70;63.90;;;;;;1497173;78;1486;-72
2022/12/02 08:58:01;;;;;;;;;;;19.60;63.80;;;;;;1499788;78;1112;-71
2022/12/02 09:00:07;;;;;;;;;;;19.70;63.90;;;;;;1496231;78;674;-71
2022/12/02 09:02:09;;;;;;;;;;;19.60;63.80;;;;;;1503548;78;681;-72
2022/12/02 09:04:10;;;;;;;;;;;19.60;63.70;;;;;;1501277;78;710;-71
2022/12/02 09:06:12;;;;;;;;;;;19.70;63.80;;;;;;1501834;78;1160;-73
2022/12/02 09:08:14;;;;;;;;;;;19.70;63.80;;;;;;1501387;78;685;-74
2022/12/02 09:10:16;;;;;;;;;;;19.70;63.80;;;;;;1498204;78;1942;-72
2022/12/02 09:12:18;;;;;;;;;;;19.70;63.80;;;;;;1497247;78;625;-72
2022/12/02 09:14:20;;;;;;;;;;;19.60;63.80;;;;;;1500954;78;993;-73
2022/12/02 09:16:22;;;;;;;;;;;19.70;63.80;;;;;;1500182;78;1154;-72
2022/12/02 09:18:24;;;;;;;;;;;19.70;63.80;;;;;;1502379;77;867;-72
2022/12/02 09:20:25;;;;;;;;;;;19.70;63.90;;;;;;1499581;78;674;-71
2022/12/02 09:22:27;;;;;;;;;;;19.60;63.70;;;;;;1500170;78;778;-72
2022/12/02 09:24:29;;;;;;;;;;;19.70;63.80;;;;;;1498302;78;1611;-72
2022/12/02 09:26:31;;;;;;;;;;;19.70;63.80;;;;;;1497969;78;1114;-68
2022/12/02 09:28:33;;;;;;;;;;;19.70;63.90;;;;;;1499868;78;1933;-72
2022/12/02 09:30:35;;;;;;;;;;;19.70;63.90;;;;;;1503787;78;717;-72
2022/12/02 09:32:37;;;;;;;;;;;19.70;64.00;;;;;;1500128;78;733;-70
2022/12/02 09:34:38;;;;;;;;;;;19.70;64.00;;;;;;1504037;78;672;-72
2022/12/02 09:36:40;;;;;;;;;;;19.70;64.10;;;;;;1497850;78;1502;-72
2022/12/02 09:38:42;;;;;;;;;;;19.70;64.10;;;;;;1498745;78;636;-71
2022/12/02 09:40:44;;;;;;;;;;;19.70;64.20;;;;;;1506137;78;718;-71
2022/12/02 09:42:46;;;;;;;;;;;19.70;64.20;;;;;;1500396;78;731;-72
2022/12/02 09:44:48;;;;;;;;;;;19.70;64.30;;;;;;1506222;78;746;-70
2022/12/02 09:46:50;;;;;;;;;;;19.70;64.20;;;;;;1504252;78;1195;-69
2022/12/02 09:48:52;;;;;;;;;;;19.70;64.30;;;;;;1499306;78;1924;-71
2022/12/02 09:50:54;;;;;;;;;;;19.70;64.30;;;;;;1499250;78;1469;-71
2022/12/02 09:52:59;;;;;;;;;;;19.70;64.30;;;;;;1508321;78;677;-70
2022/12/02 09:55:01;;;;;;;;;;;19.70;64.40;;;;;;1504580;78;696;-69
2022/12/02 09:57:04;;;;;;;;;;;19.70;64.40;;;;;;1507480;78;1396;-70
2022/12/02 09:59:08;;;;;;;;;;;19.60;64.30;;;;;;1519731;76;862;-70
2022/12/02 10:01:10;;;;;;;;;;;19.60;64.40;;;;;;1531107;76;911;-70
2022/12/02 10:03:13;;;;;;;;;;;19.70;64.40;;;;;;1520316;76;592;-70
2022/12/02 10:05:15;;;;;;;;;;;19.70;64.40;;;;;;1521463;76;1478;-72
2022/12/02 10:07:17;;;;;;;;;;;19.70;64.30;;;;;;1521069;76;1155;-70
2022/12/02 10:09:21;;;;;;;;;;;19.80;64.40;;;;;;1523451;76;1945;-71
2022/12/02 10:11:26;;;;;;;;;;;19.70;64.40;;;;;;1518176;76;1970;-70
2022/12/02 10:13:28;;;;;;;;;;;19.80;64.40;;;;;;1526236;76;724;-70
2022/12/02 10:15:33;;;;;;;;;;;19.70;64.40;;;;;;1524036;76;762;-71
2022/12/02 10:17:35;;;;;;;;;;;19.70;64.40;;;;;;1530712;75;1128;-70
2022/12/02 10:19:37;;;;;;;;;;;19.80;64.40;;;;;;1521674;76;1459;-70
2022/12/02 10:21:39;;;;;;;;;;;19.70;64.40;;;;;;1523275;76;734;-70
2022/12/02 10:23:54;;;;;;;;;;;19.70;64.40;;;;;;1531346;76;714;-71
2022/12/02 10:25:57;;;;;;;;;;;19.70;64.40;;;;;;1520804;76;616;-68
2022/12/02 10:27:59;;;;;;;;;;;19.70;64.50;;;;;;1512172;76;1204;-69
2022/12/02 10:30:14;;;;;;;;;;;19.70;64.40;;;;;;1525021;76;1941;-69
2022/12/02 10:32:21;;;;;;;;;;;19.80;64.40;;;;;;1526223;76;1013;-66
2022/12/02 10:34:23;;;;;;;;;;;19.70;64.40;;;;;;1522610;76;1216;-70
2022/12/02 10:36:34;;;;;;;;;;;19.70;64.30;;;;;;1523611;76;1159;-68
2022/12/02 10:38:38;;;;;;;;;;;19.80;64.40;;;;;;1520382;76;655;-67
2022/12/02 10:40:40;;;;;;;;;;;19.70;64.50;;;;;;1522463;76;1060;-69
2022/12/02 10:42:42;;;;;;;;;;;19.70;64.50;;;;;;1526304;76;673;-67
2022/12/02 10:44:44;;;;;;;;;;;19.70;64.50;;;;;;1527244;76;759;-69
2022/12/02 10:46:46;;;;;;;;;;;19.70;64.50;;;;;;1520766;76;1189;-68
2022/12/02 10:48:49;;;;;;;;;;;19.70;64.50;;;;;;1523593;76;1506;-69
2022/12/02 10:50:50;;;;;;;;;;;19.70;64.40;;;;;;1521846;76;1925;-70
2022/12/02 10:52:54;;;;;;;;;;;19.70;64.40;;;;;;1522220;76;660;-70
2022/12/02 10:54:56;;;;;;;;;;;19.70;64.30;;;;;;1522252;76;1052;-69
2022/12/02 10:56:59;;;;;;;;;;;19.70;64.30;;;;;;1523894;76;1134;-70
2022/12/02 10:59:01;;;;;;;;;;;19.70;64.30;;;;;;1527090;76;932;-70
2022/12/02 11:01:05;;;;;;;;;;;19.70;64.30;;;;;;1521626;76;1453;-71
2022/12/02 11:03:07;;;;;;;;;;;19.80;64.30;;;;;;1526729;76;1246;-69
2022/12/02 11:05:16;;;;;;;;;;;19.70;64.40;;;;;;1521131;76;670;-69
2022/12/02 11:07:19;;;;;;;;;;;19.80;64.40;;;;;;1521353;76;1103;-69
2022/12/02 11:09:22;;;;;;;;;;;19.70;64.30;;;;;;1520956;76;1934;-70
2022/12/02 11:11:25;;;;;;;;;;;19.70;64.40;;;;;;1525041;76;754;-70
2022/12/02 11:13:32;;;;;;;;;;;19.70;64.50;;;;;;1525560;76;689;-67
2022/12/02 11:15:38;;;;;;;;;;;19.70;64.60;;;;;;1524879;76;1461;-69
2022/12/02 11:17:49;;;;;;;;;;;19.80;64.70;;;;;;1522895;76;1161;-69
2022/12/02 11:19:51;;;;;;;;;;;19.80;64.90;;;;;;1527228;76;764;-70
2022/12/02 11:21:53;;;;;;;;;;;19.70;64.90;;;;;;1485955;78;630;-69
2022/12/02 11:24:13;;;;;;;;;;;19.70;65.10;;;;;;1526405;76;800;-70
2022/12/02 11:26:15;;;;;;;;;;;19.70;65.40;;;;;;1521346;76;1169;-71
2022/12/02 11:28:19;;;;;;;;;;;19.70;65.90;;;;;;1512661;76;778;-71
2022/12/02 11:30:25;;;;;;;;;;;19.80;66.30;;;;;;1520866;76;1925;-70
2022/12/02 11:32:30;;;;;;;;;;;19.80;66.50;;;;;;1521031;76;773;-69
2022/12/02 11:34:42;;;;;;;;;;;19.80;66.90;;;;;;1521367;76;702;-71
2022/12/02 11:36:44;;;;;;;;;;;19.80;67.00;;;;;;1520638;76;1131;-71
2022/12/02 11:38:54;;;;;;;;;;;19.80;67.10;;;;;;1521513;76;742;-72
2022/12/02 11:40:59;;;;;;;;;;;19.80;67.30;;;;;;1541221;76;732;-72
2022/12/02 11:43:19;;;;;;;;;;;19.80;67.40;;;;;;1531245;76;702;-69
2022/12/02 11:45:22;;;;;;;;;;;19.80;67.40;;;;;;1520495;76;716;-70
2022/12/02 11:47:28;;;;;;;;;;;19.80;67.10;;;;;;1527557;76;1139;-72
2022/12/02 11:49:31;;;;;;;;;;;19.80;67.00;;;;;;1522458;76;1917;-71
2022/12/02 11:51:40;;;;;;;;;;;19.80;66.90;;;;;;1530701;76;694;-71
2022/12/02 11:53:42;;;;;;;;;;;19.80;66.90;;;;;;1525667;76;704;-71
2022/12/02 11:55:44;;;;;;;;;;;19.80;66.80;;;;;;1501850;78;1137;-71
2022/12/02 11:57:50;;;;;;;;;;;19.80;66.90;;;;;;1524310;76;1465;-71
2022/12/02 11:59:52;;;;;;;;;;;19.80;66.80;;;;;;1530057;76;801;-70
2022/12/02 12:02:12;;;;;;;;;;;19.80;66.90;;;;;;1520621;76;677;-71
2022/12/02 12:04:24;;;;;;;;;;;19.80;66.80;;;;;;1525838;76;707;-73
2022/12/02 12:06:28;;;;;;;;;;;19.80;66.70;;;;;;1520493;76;1309;-70
2022/12/02 12:08:29;;;;;;;;;;;19.80;66.80;;;;;;1522060;76;1614;-69
2022/12/02 12:10:32;;;;;;;;;;;19.80;66.80;;;;;;1523531;76;1922;-70
2022/12/02 12:12:34;;;;;;;;;;;19.80;66.70;;;;;;1522950;76;1540;-69
2022/12/02 12:14:55;;;;;;;;;;;19.80;66.70;;;;;;1520980;76;741;-69